Terminal Aerodrome Forecast
Issued by NWS Portland, ME

Current Version | Previous Version | Text Only | Print | Product List | Glossary On
Versions: 1 2 3 4 5 6 7 8 9 10 11 12 13 14 15 16
000 FTUS41 KGYX 211124 TAFCON TAF KCON 211124Z 2112/2212 16005KT 6SM BR VCSH BKN009 FM211230 16003KT 4SM -RA BR OVC007 FM211500 17008KT P6SM OVC020 FM220300 VRB03KT 2SM BR OVC007=

USA.gov is the U.S. government's official web portal to all federal, state and local government web resources and services.